Time;durP1;ratioP1;P1;durP2;ratioP2;P2;SDS_P1;SDS_P2;PMS_P1;PMS_P2;Temp;Humidity;BMP_temperature;BMP_pressure;BME280_temperature;BME280_humidity;BME280_pressure;Samples;Min_cycle;Max_cycle;Signal;HPM_P1;HPM_P2
2023/08/16 00:00:35;;;;;;;3.10;1.02;;;;;;;22.23;59.21;100370.38;10377897;28;96722;-81
2023/08/16 00:05:41;;;;;;;2.63;1.30;;;;;;;22.16;59.46;100362.00;10377315;28;97207;-81
2023/08/16 00:10:45;;;;;;;2.38;1.30;;;;;;;22.21;59.60;100366.97;10377874;28;96793;-81
2023/08/16 00:15:48;;;;;;;1.93;1.13;;;;;;;21.71;61.03;100348.94;10390009;28;96710;-81
2023/08/16 00:20:53;;;;;;;1.70;1.00;;;;;;;21.73;61.10;100347.00;10418412;28;96812;-82
2023/08/16 00:25:57;;;;;;;2.17;1.27;;;;;;;22.22;59.41;100334.69;10417218;28;96613;-81
2023/08/16 00:31:00;;;;;;;2.28;1.25;;;;;;;22.04;59.78;100341.59;10411887;28;97528;-81
2023/08/16 00:36:06;;;;;;;2.43;1.20;;;;;;;21.91;60.02;100342.75;10375840;28;97604;-81
2023/08/16 00:41:09;;;;;;;1.77;1.30;;;;;;;21.88;60.25;100334.97;10375669;28;96767;-81
2023/08/16 00:46:14;;;;;;;3.55;1.40;;;;;;;21.84;60.46;100328.16;10376219;28;96994;-81
2023/08/16 00:51:19;;;;;;;1.88;1.27;;;;;;;21.37;61.75;100319.63;10376070;28;97033;-81
2023/08/16 00:56:23;;;;;;;2.33;1.35;;;;;;;21.26;62.20;100325.00;10375476;28;97289;-81
2023/08/16 01:01:27;;;;;;;1.83;1.20;;;;;;;21.28;62.39;100323.06;10376300;28;96919;-81
2023/08/16 01:06:31;;;;;;;2.27;1.40;;;;;;;21.49;61.59;100312.38;10375888;28;96796;-81
2023/08/16 01:11:39;;;;;;;2.00;1.20;;;;;;;21.51;61.55;100315.78;10375119;28;96984;-81
2023/08/16 01:16:46;;;;;;;1.67;1.20;;;;;;;21.53;61.18;100316.53;10402378;28;96939;-81
2023/08/16 01:22:00;;;;;;;2.53;1.60;;;;;;;21.28;62.37;100312.34;10412630;28;96633;-81
2023/08/16 01:27:06;;;;;;;3.47;1.33;;;;;;;21.45;61.59;100305.56;10375561;28;97666;-81
2023/08/16 01:32:09;;;;;;;2.22;1.40;;;;;;;21.44;61.60;100306.56;10374803;28;96547;-81
2023/08/16 01:37:13;;;;;;;2.47;1.20;;;;;;;21.43;61.37;100313.75;10374108;28;96750;-81
2023/08/16 01:42:18;;;;;;;2.28;1.40;;;;;;;21.38;61.70;100313.28;10375282;28;96819;-81
2023/08/16 01:47:21;;;;;;;2.25;1.25;;;;;;;21.19;62.08;100314.94;10373547;28;96886;-81
2023/08/16 01:52:27;;;;;;;4.50;1.48;;;;;;;21.20;62.28;100314.81;10374916;28;97628;-81
2023/08/16 01:57:31;;;;;;;2.38;1.65;;;;;;;21.13;62.29;100323.44;10374228;28;96946;-81
2023/08/16 02:02:35;;;;;;;2.10;1.35;;;;;;;21.02;62.62;100326.97;10372644;28;96711;-81
2023/08/16 02:07:38;;;;;;;1.73;1.10;;;;;;;21.02;62.73;100331.47;10372589;28;97765;-81
2023/08/16 02:12:44;;;;;;;2.88;1.23;;;;;;;21.08;62.86;100331.00;10376235;28;96660;-81
2023/08/16 02:17:47;;;;;;;2.70;1.58;;;;;;;20.90;63.20;100329.78;10414007;28;97556;-81
2023/08/16 02:22:50;;;;;;;1.90;1.20;;;;;;;20.85;63.68;100340.00;10414542;28;96586;-81
2023/08/16 02:27:55;;;;;;;2.47;1.27;;;;;;;20.77;63.74;100334.44;10414161;28;97445;-81
2023/08/16 02:32:59;;;;;;;2.35;1.30;;;;;;;20.76;63.86;100338.94;10383781;28;97862;-80
2023/08/16 02:38:02;;;;;;;2.80;1.58;;;;;;;20.63;64.09;100340.03;10372479;28;96911;-81
2023/08/16 02:43:07;;;;;;;2.15;1.20;;;;;;;20.68;64.10;100332.50;10372959;28;97899;-81
2023/08/16 02:48:11;;;;;;;2.30;1.30;;;;;;;20.70;63.97;100335.91;10379319;22;98395;-81
2023/08/16 02:53:16;;;;;;;2.47;1.45;;;;;;;20.67;64.15;100338.84;10372163;28;96823;-81
2023/08/16 02:58:21;;;;;;;3.10;1.17;;;;;;;20.68;64.10;100343.19;10370430;28;96789;-80
2023/08/16 03:03:24;;;;;;;2.42;1.40;;;;;;;20.68;64.03;100335.16;10371380;28;96762;-81
2023/08/16 03:08:28;;;;;;;3.28;1.27;;;;;;;20.49;64.31;100334.94;10371560;28;96750;-80
2023/08/16 03:13:32;;;;;;;1.95;1.40;;;;;;;20.42;64.63;100334.56;10371163;28;96749;-80
2023/08/16 03:18:36;;;;;;;1.80;1.25;;;;;;;19.87;66.62;100340.66;10371445;28;96761;-81
2023/08/16 03:23:39;;;;;;;2.92;1.50;;;;;;;19.68;67.23;100335.00;10370920;28;97578;-81
2023/08/16 03:28:44;;;;;;;2.72;1.67;;;;;;;19.73;67.22;100331.97;10370672;28;96845;-81
2023/08/16 03:33:48;;;;;;;1.88;1.35;;;;;;;20.06;66.05;100329.41;10371862;28;97140;-81
2023/08/16 03:38:51;;;;;;;2.17;1.00;;;;;;;20.08;65.86;100322.13;10370152;28;96848;-81
2023/08/16 03:43:56;;;;;;;2.83;1.17;;;;;;;19.88;66.61;100328.97;10370476;28;97134;-81
2023/08/16 03:48:59;;;;;;;2.10;1.17;;;;;;;20.13;65.86;100331.44;10368552;28;97334;-81
2023/08/16 03:54:03;;;;;;;4.32;1.45;;;;;;;20.09;65.78;100330.00;10370094;28;97142;-81
2023/08/16 03:59:08;;;;;;;3.85;1.48;;;;;;;20.07;66.02;100329.28;10370068;28;97929;-81
2023/08/16 04:04:11;;;;;;;3.00;1.40;;;;;;;20.11;65.66;100332.56;10370206;28;96688;-80
2023/08/16 04:09:15;;;;;;;2.28;1.20;;;;;;;20.08;65.86;100338.97;10369741;28;97011;-81
2023/08/16 04:14:19;;;;;;;2.50;1.50;;;;;;;20.14;65.94;100335.84;10369445;28;97012;-80
2023/08/16 04:19:22;;;;;;;3.25;1.60;;;;;;;20.07;65.93;100331.09;10369326;28;96829;-81
2023/08/16 04:24:26;;;;;;;2.70;1.40;;;;;;;20.00;65.70;100330.72;10370877;28;96570;-80
2023/08/16 04:29:30;;;;;;;2.83;1.55;;;;;;;19.97;66.20;100336.31;10375990;28;96717;-80
2023/08/16 04:34:34;;;;;;;1.58;1.27;;;;;;;19.47;67.99;100331.28;10376398;28;96620;-81
2023/08/16 04:39:37;;;;;;;2.47;1.50;;;;;;;19.82;67.02;100339.28;10375430;28;96740;-81
2023/08/16 04:44:42;;;;;;;2.72;1.48;;;;;;;19.75;66.72;100330.88;10376006;28;96665;-80
2023/08/16 04:49:45;;;;;;;2.40;1.30;;;;;;;19.63;67.50;100339.81;10375019;28;97807;-81
2023/08/16 04:54:49;;;;;;;2.60;1.50;;;;;;;19.58;67.55;100327.81;10375614;28;97490;-80
2023/08/16 04:59:54;;;;;;;2.88;1.40;;;;;;;20.07;66.24;100323.94;10375554;28;96900;-80
2023/08/16 05:04:58;;;;;;;2.47;1.60;;;;;;;19.92;66.40;100325.13;10375217;28;96735;-80
2023/08/16 05:10:02;;;;;;;4.35;1.65;;;;;;;19.58;67.39;100325.97;10375424;28;97764;-80
2023/08/16 05:15:09;;;;;;;2.22;1.10;;;;;;;19.57;67.81;100326.06;10375504;28;96682;-80
2023/08/16 05:20:12;;;;;;;2.50;1.35;;;;;;;19.71;67.27;100333.91;10374326;28;96845;-80
2023/08/16 05:25:16;;;;;;;2.87;1.40;;;;;;;19.66;67.03;100330.72;10374707;28;96521;-80
2023/08/16 05:30:21;;;;;;;2.75;1.27;;;;;;;19.51;67.37;100337.22;10373528;28;97510;-80
2023/08/16 05:35:24;;;;;;;2.20;1.35;;;;;;;19.44;67.41;100342.16;10373928;28;97127;-80
2023/08/16 05:40:28;;;;;;;3.07;1.60;;;;;;;19.56;67.59;100354.63;10373352;28;97556;-80
2023/08/16 05:45:32;;;;;;;3.40;1.33;;;;;;;19.73;66.90;100348.84;10373963;28;96729;-81
2023/08/16 05:50:36;;;;;;;2.53;1.48;;;;;;;19.75;67.17;100348.72;10369320;28;97119;-80
2023/08/16 05:55:39;;;;;;;3.00;1.60;;;;;;;19.87;66.63;100353.16;10373459;28;97315;-80
2023/08/16 06:00:45;;;;;;;3.05;1.27;;;;;;;19.79;66.87;100361.72;10373813;28;96851;-81
2023/08/16 06:05:49;;;;;;;3.58;1.33;;;;;;;19.71;66.93;100369.47;10373976;28;96865;-80
2023/08/16 06:10:52;;;;;;;2.15;1.50;;;;;;;19.71;67.00;100377.47;10373037;28;96709;-80
2023/08/16 06:15:57;;;;;;;2.63;1.58;;;;;;;19.66;67.45;100376.13;10372740;28;96642;-80
2023/08/16 06:21:00;;;;;;;2.50;1.60;;;;;;;19.87;66.92;100375.38;10371789;28;97427;-80
2023/08/16 06:26:03;;;;;;;1.83;1.17;;;;;;;19.98;66.93;100379.88;10372690;28;96950;-81
2023/08/16 06:31:08;;;;;;;2.60;1.58;;;;;;;20.08;66.68;100380.91;10371862;28;98319;-81
2023/08/16 06:36:13;;;;;;;3.92;1.55;;;;;;;20.06;66.79;100389.03;10372539;28;96653;-81
2023/08/16 06:41:16;;;;;;;;;;;;;;;20.06;68.02;100393.50;10372685;28;96701;-81
2023/08/16 06:46:21;;;;;;;1.92;1.10;;;;;;;20.19;66.51;100391.59;10371265;28;97319;-81
2023/08/16 06:51:24;;;;;;;2.13;1.50;;;;;;;20.36;66.57;100402.72;10371639;28;96688;-81
2023/08/16 06:56:29;;;;;;;3.00;1.67;;;;;;;20.49;66.17;100410.66;10372343;28;96829;-81
2023/08/16 07:01:33;;;;;;;3.70;1.60;;;;;;;20.57;66.40;100413.56;10371670;28;97114;-81
2023/08/16 07:06:37;;;;;;;3.20;1.63;;;;;;;20.71;65.72;100423.19;10371734;28;96653;-81
2023/08/16 07:11:40;;;;;;;3.92;1.65;;;;;;;20.68;66.14;100418.94;10370515;28;97216;-81
2023/08/16 07:16:45;;;;;;;4.13;1.70;;;;;;;20.90;65.32;100415.41;10375672;28;96848;-81
2023/08/16 07:21:49;;;;;;;2.33;1.35;;;;;;;21.18;64.90;100407.75;10383074;28;96764;-81
2023/08/16 07:26:52;;;;;;;3.63;1.50;;;;;;;21.46;64.20;100395.66;10370462;28;96716;-81
2023/08/16 07:31:57;;;;;;;2.75;1.73;;;;;;;21.77;63.83;100389.47;10371157;28;96907;-81
2023/08/16 07:37:01;;;;;;;2.08;1.15;;;;;;;22.04;62.77;100387.16;10370370;28;97658;-81
2023/08/16 07:42:06;;;;;;;2.60;1.50;;;;;;;22.49;61.93;100388.59;10370981;28;97267;-81
2023/08/16 07:47:12;;;;;;;2.47;1.67;;;;;;;22.55;61.78;100392.59;10370582;28;96730;-81
2023/08/16 07:52:15;;;;;;;2.40;1.60;;;;;;;22.35;62.08;100398.81;10369871;28;96605;-81
2023/08/16 07:57:19;;;;;;;3.20;1.80;;;;;;;22.85;61.28;100400.69;10369626;28;96764;-81
2023/08/16 08:02:24;;;;;;;2.90;1.97;;;;;;;23.27;60.49;100406.75;10374501;28;97372;-81
2023/08/16 08:07:36;;;;;;;2.37;1.43;;;;;;;23.69;59.58;100402.91;10377220;28;96805;-81
2023/08/16 08:12:40;;;;;;;2.70;1.70;;;;;;;24.22;58.01;100404.16;10376993;28;97565;-81
2023/08/16 08:17:47;;;;;;;5.00;1.80;;;;;;;24.77;56.89;100408.72;10376497;28;97145;-81
2023/08/16 08:22:50;;;;;;;3.35;1.70;;;;;;;25.14;55.92;100406.06;10376791;28;96728;-81
2023/08/16 08:27:54;;;;;;;2.40;1.50;;;;;;;25.54;54.69;100402.97;10376717;28;97134;-81
2023/08/16 08:33:00;;;;;;;;;;;;;;;26.12;53.20;100393.50;10377016;28;96805;-82
2023/08/16 08:38:04;;;;;;;2.20;1.48;;;;;;;26.47;52.52;100390.72;10376977;28;96755;-82
2023/08/16 08:43:07;;;;;;;2.95;1.40;;;;;;;27.00;51.51;100385.13;10376311;28;96716;-82
2023/08/16 08:48:14;;;;;;;2.80;1.23;;;;;;;27.06;51.02;100389.09;10375306;28;96983;-82
2023/08/16 08:53:18;;;;;;;2.50;1.40;;;;;;;27.21;50.53;100382.03;10374948;28;96597;-81
2023/08/16 08:58:24;;;;;;;2.63;1.55;;;;;;;27.56;49.92;100385.34;10375564;28;97128;-81
2023/08/16 09:03:31;;;;;;;2.20;1.25;;;;;;;28.23;48.47;100378.00;10375436;28;96672;-82
2023/08/16 09:08:37;;;;;;;2.85;1.73;;;;;;;27.78;49.00;100379.34;10375526;28;96589;-82
2023/08/16 09:13:41;;;;;;;3.15;1.40;;;;;;;28.04;48.36;100381.91;10374502;28;97050;-81
2023/08/16 09:18:49;;;;;;;2.28;1.20;;;;;;;28.12;47.96;100373.78;10374274;28;96681;-82
2023/08/16 09:23:56;;;;;;;1.65;1.10;;;;;;;28.75;46.65;100371.16;10374578;28;97075;-81
2023/08/16 09:29:02;;;;;;;3.03;1.42;;;;;;;29.26;45.86;100362.50;10375650;28;97556;-81
2023/08/16 09:34:07;;;;;;;2.05;1.23;;;;;;;29.35;46.14;100366.06;10374526;28;96886;-81
2023/08/16 09:39:11;;;;;;;1.98;1.38;;;;;;;29.33;46.98;100368.09;10374082;28;96791;-81
2023/08/16 09:44:14;;;;;;;;;;;;;;;29.30;45.66;100363.84;10373951;28;96966;-82
2023/08/16 09:49:22;;;;;;;2.63;1.40;;;;;;;29.48;46.08;100360.88;10373532;28;97459;-82
2023/08/16 09:54:26;;;;;;;1.77;1.20;;;;;;;29.55;46.08;100359.16;10373638;28;97630;-82
2023/08/16 09:59:32;;;;;;;2.38;1.40;;;;;;;29.50;45.87;100356.97;10373740;28;96740;-82
2023/08/16 10:04:40;;;;;;;2.67;1.52;;;;;;;29.28;46.46;100348.81;10371969;28;96772;-81
2023/08/16 10:09:47;;;;;;;3.78;1.40;;;;;;;29.68;45.95;100343.13;10366689;28;97572;-81
2023/08/16 10:14:51;;;;;;;2.80;1.50;;;;;;;29.54;46.05;100347.47;10373330;28;96798;-81
2023/08/16 10:20:00;;;;;;;2.22;1.60;;;;;;;29.52;46.01;100343.25;10373404;28;96892;-82
2023/08/16 10:25:10;;;;;;;2.35;1.50;;;;;;;30.20;45.02;100350.38;10372239;28;96755;-81
2023/08/16 10:30:19;;;;;;;2.45;1.67;;;;;;;30.40;44.37;100345.25;10372525;28;96720;-82
2023/08/16 10:35:25;;;;;;;2.03;1.40;;;;;;;30.26;44.79;100330.59;10371433;28;96783;-82
2023/08/16 10:40:29;;;;;;;2.00;1.38;;;;;;;30.44;44.81;100332.16;10372417;28;96648;-81
2023/08/16 10:45:35;;;;;;;2.58;1.85;;;;;;;30.82;44.67;100336.50;10365690;28;96726;-81
2023/08/16 10:50:43;;;;;;;2.55;1.70;;;;;;;30.52;44.52;100332.06;10376875;28;96876;-81
2023/08/16 10:55:52;;;;;;;2.58;1.73;;;;;;;30.72;44.36;100342.22;10372095;28;97192;-81
2023/08/16 11:01:00;;;;;;;3.42;2.17;;;;;;;30.27;45.18;100331.47;10371758;28;96656;-82
2023/08/16 11:06:10;;;;;;;3.03;2.08;;;;;;;30.30;45.19;100332.97;10371367;28;97791;-82
2023/08/16 11:11:15;;;;;;;5.38;2.40;;;;;;;30.14;44.76;100331.25;10372396;28;97030;-81
2023/08/16 11:16:18;;;;;;;3.40;2.25;;;;;;;30.08;45.19;100313.81;10371055;28;97177;-81
2023/08/16 11:21:25;;;;;;;4.15;2.53;;;;;;;29.92;45.05;100310.38;10330168;28;97030;-81
2023/08/16 11:26:38;;;;;;;4.72;2.40;;;;;;;29.67;45.27;100306.19;10328940;28;97097;-81
2023/08/16 11:31:41;;;;;;;4.00;2.28;;;;;;;29.58;45.64;100291.00;10329880;28;97576;-82
2023/08/16 11:36:46;;;;;;;3.10;2.33;;;;;;;29.67;45.77;100289.91;10363810;28;97434;-82
2023/08/16 11:41:49;;;;;;;4.18;2.53;;;;;;;29.66;45.64;100280.09;10378459;28;97170;-81
2023/08/16 11:46:53;;;;;;;2.60;2.20;;;;;;;29.67;45.77;100281.78;10377699;28;96920;-82
2023/08/16 11:52:00;;;;;;;5.20;2.55;;;;;;;29.58;45.39;100280.16;10377513;28;96738;-81
2023/08/16 11:57:04;;;;;;;3.17;2.50;;;;;;;29.73;45.63;100276.47;10377653;28;97228;-82
2023/08/16 12:02:09;;;;;;;3.58;2.67;;;;;;;29.92;45.54;100273.22;10378355;28;96703;-82
2023/08/16 12:07:14;;;;;;;3.92;2.90;;;;;;;29.78;45.48;100276.75;10377368;28;96730;-82
2023/08/16 12:12:17;;;;;;;4.35;2.95;;;;;;;29.82;45.62;100282.66;10336015;28;96767;-82
2023/08/16 12:17:21;;;;;;;5.88;3.60;;;;;;;29.79;45.20;100283.03;10334592;28;97480;-81
2023/08/16 12:22:26;;;;;;;4.60;3.13;;;;;;;30.10;45.23;100278.34;10371424;28;96711;-82
2023/08/16 12:27:29;;;;;;;5.18;3.55;;;;;;;30.12;45.24;100265.44;10376337;28;97302;-81
2023/08/16 12:32:33;;;;;;;5.38;4.07;;;;;;;30.15;45.08;100265.06;10376668;28;96808;-82
2023/08/16 12:37:38;;;;;;;4.25;3.22;;;;;;;30.37;45.04;100269.56;10376267;28;96663;-82
2023/08/16 12:42:50;;;;;;;3.83;2.97;;;;;;;30.42;44.41;100275.28;10375824;28;97812;-82
2023/08/16 12:47:54;;;;;;;3.75;2.80;;;;;;;30.62;44.22;100259.28;10374929;28;96930;-82
2023/08/16 12:53:00;;;;;;;3.47;2.42;;;;;;;30.61;44.57;100272.00;10376686;28;96818;-82
2023/08/16 12:58:24;;;;;;;2.90;2.08;;;;;;;30.69;43.69;100276.53;10375367;28;97425;-82
2023/08/16 13:03:36;;;;;;;3.47;2.35;;;;;;;30.94;44.08;100277.91;10375622;28;96839;-82
2023/08/16 13:08:44;;;;;;;3.83;2.50;;;;;;;30.91;44.11;100267.41;10374666;28;97632;-82
2023/08/16 13:13:50;;;;;;;3.05;2.30;;;;;;;30.87;43.60;100261.50;10373710;28;97148;-82
2023/08/16 13:18:54;;;;;;;4.65;2.33;;;;;;;31.10;42.97;100266.78;10374455;28;97111;-82
2023/08/16 13:24:08;;;;;;;2.92;1.90;;;;;;;30.86;41.99;100268.00;10368870;28;96516;-81
2023/08/16 13:29:32;;;;;;;4.65;2.63;;;;;;;31.04;42.79;100265.69;10374456;28;96795;-82
2023/08/16 13:34:44;;;;;;;3.10;2.28;;;;;;;31.16;41.90;100264.19;10374833;28;97424;-82
2023/08/16 13:40:04;;;;;;;3.88;2.30;;;;;;;31.14;42.44;100255.38;10374220;28;96709;-82
2023/08/16 13:45:21;;;;;;;2.75;2.10;;;;;;;31.44;41.83;100255.28;10375306;28;97473;-82
2023/08/16 13:50:25;;;;;;;2.80;2.25;;;;;;;31.23;42.31;100256.09;10373407;28;96800;-82
2023/08/16 13:55:33;;;;;;;2.92;2.40;;;;;;;31.40;42.25;100251.25;10373878;28;96878;-82
2023/08/16 14:00:36;;;;;;;3.47;2.13;;;;;;;31.52;41.99;100255.13;10371814;28;96698;-82
2023/08/16 14:05:40;;;;;;;3.40;2.22;;;;;;;31.54;41.83;100251.19;10374070;28;97018;-82
2023/08/16 14:10:44;;;;;;;3.80;2.35;;;;;;;31.43;41.98;100239.97;10373556;28;96692;-82
2023/08/16 14:15:53;;;;;;;4.55;2.20;;;;;;;31.47;42.22;100249.44;10373407;28;97641;-82
2023/08/16 14:20:58;;;;;;;3.58;2.00;;;;;;;31.43;41.71;100249.00;10373324;28;97082;-82
2023/08/16 14:26:12;;;;;;;3.05;2.00;;;;;;;31.46;41.34;100245.06;10372827;28;97430;-82
2023/08/16 14:31:16;;;;;;;2.67;1.98;;;;;;;31.43;41.14;100246.28;10372998;28;96843;-82
2023/08/16 14:36:21;;;;;;;3.17;2.00;;;;;;;31.28;41.52;100248.22;10373531;28;97645;-82
2023/08/16 14:41:29;;;;;;;2.80;1.67;;;;;;;31.34;40.84;100244.72;10372836;28;96657;-82
2023/08/16 14:46:33;;;;;;;3.17;1.73;;;;;;;31.21;41.49;100237.25;10372095;28;96925;-82
2023/08/16 14:51:36;;;;;;;2.35;1.60;;;;;;;30.99;41.45;100240.13;10371751;28;96967;-82
2023/08/16 14:56:41;;;;;;;2.55;1.55;;;;;;;31.00;41.25;100247.25;10371932;28;96716;-82
2023/08/16 15:01:46;;;;;;;4.25;1.73;;;;;;;31.01;41.05;100238.88;10371845;28;97817;-82
2023/08/16 15:06:50;;;;;;;2.13;1.25;;;;;;;31.02;41.36;100239.75;10372068;28;96558;-82
2023/08/16 15:11:55;;;;;;;2.17;1.50;;;;;;;30.98;40.94;100242.00;10371508;28;96729;-82
2023/08/16 15:16:59;;;;;;;1.85;1.40;;;;;;;30.92;41.11;100236.50;10399335;22;97133;-81
2023/08/16 15:22:06;;;;;;;2.40;1.30;;;;;;;30.69;41.38;100230.34;10496863;27;96754;-81
2023/08/16 15:27:12;;;;;;;1.73;1.23;;;;;;;30.78;41.52;100227.34;10497783;27;97693;-82
2023/08/16 15:32:17;;;;;;;2.53;1.38;;;;;;;30.62;41.45;100226.66;10488745;27;96758;-82
2023/08/16 15:37:24;;;;;;;2.45;1.30;;;;;;;30.85;41.32;100238.28;10481374;27;97607;-82
2023/08/16 15:42:28;;;;;;;2.40;1.33;;;;;;;30.75;41.37;100238.56;10495674;27;96729;-82
2023/08/16 15:47:32;;;;;;;1.50;1.15;;;;;;;30.45;41.78;100236.06;10496568;27;96847;-82
2023/08/16 15:52:35;;;;;;;1.60;1.38;;;;;;;30.42;41.36;100234.53;10495954;27;97300;-82
2023/08/16 15:57:41;;;;;;;2.08;1.38;;;;;;;30.34;41.33;100239.22;10495960;27;96739;-82
2023/08/16 16:02:44;;;;;;;1.98;1.42;;;;;;;29.85;42.08;100239.72;10496648;27;96664;-82
2023/08/16 16:07:48;;;;;;;1.67;1.20;;;;;;;29.92;41.51;100242.53;10474864;27;96793;-82
2023/08/16 16:12:52;;;;;;;;;;;;;;;29.85;42.03;100242.44;10472431;27;96935;-82
2023/08/16 16:17:55;;;;;;;2.10;1.40;;;;;;;29.54;42.68;100233.56;10496171;27;96950;-82
2023/08/16 16:22:59;;;;;;;;;;;;;;;29.48;42.72;100228.00;10494520;27;96634;-81
2023/08/16 16:28:04;;;;;;;2.30;1.33;;;;;;;29.50;43.02;100225.94;10461007;27;96955;-81
2023/08/16 16:33:08;;;;;;;1.25;1.15;;;;;;;29.47;43.03;100232.56;10459241;27;96754;-82
2023/08/16 16:38:12;;;;;;;2.30;1.30;;;;;;;29.35;43.52;100225.06;10460142;27;96716;-82
2023/08/16 16:43:19;;;;;;;2.53;1.70;;;;;;;29.13;43.79;100229.44;10460537;27;96696;-82
2023/08/16 16:48:23;;;;;;;1.88;1.30;;;;;;;29.05;44.08;100233.03;10459423;27;97602;-82
2023/08/16 16:53:27;;;;;;;2.30;1.27;;;;;;;28.90;44.34;100232.09;10459606;27;97166;-82
2023/08/16 16:58:32;;;;;;;2.28;1.25;;;;;;;28.87;44.39;100226.19;10459983;27;97161;-81
2023/08/16 17:03:35;;;;;;;2.10;1.27;;;;;;;28.63;45.19;100227.16;10459000;27;96775;-81
2023/08/16 17:08:39;;;;;;;2.03;1.25;;;;;;;28.40;45.79;100228.94;10460108;27;96601;-81
2023/08/16 17:13:45;;;;;;;1.40;1.05;;;;;;;28.49;45.40;100230.59;10483215;27;97705;-81
2023/08/16 17:18:49;;;;;;;1.85;1.20;;;;;;;28.51;45.68;100228.56;10500577;27;97523;-82
2023/08/16 17:23:52;;;;;;;1.38;1.20;;;;;;;28.26;46.25;100235.03;10500228;27;96673;-81
2023/08/16 17:28:57;;;;;;;1.60;1.20;;;;;;;28.23;46.60;100238.09;10500990;27;96742;-81
2023/08/16 17:34:00;;;;;;;2.67;1.40;;;;;;;28.16;46.41;100238.97;10499943;27;96726;-82
2023/08/16 17:39:08;;;;;;;2.47;1.30;;;;;;;28.18;46.44;100237.78;10500442;27;97769;-82
2023/08/16 17:44:13;;;;;;;2.03;1.35;;;;;;;27.89;47.40;100240.22;10500514;27;96671;-82
2023/08/16 17:49:16;;;;;;;1.63;1.20;;;;;;;27.75;47.91;100238.19;10499201;27;96855;-82
2023/08/16 17:54:20;;;;;;;1.48;1.00;;;;;;;27.62;47.98;100244.09;10500102;27;96602;-81
2023/08/16 17:59:25;;;;;;;1.52;1.00;;;;;;;27.69;48.02;100244.28;10500816;27;97354;-82
2023/08/16 18:04:29;;;;;;;1.02;0.88;;;;;;;27.79;48.05;100243.09;10498691;27;97756;-81
2023/08/16 18:09:32;;;;;;;1.55;1.23;;;;;;;27.81;47.69;100241.06;10499580;27;96936;-82
2023/08/16 18:14:38;;;;;;;1.55;1.10;;;;;;;27.56;47.88;100252.84;10498512;27;97110;-81
2023/08/16 18:19:41;;;;;;;2.47;1.00;;;;;;;27.45;47.51;100255.06;10498945;27;97493;-82
2023/08/16 18:24:45;;;;;;;2.25;1.17;;;;;;;27.39;48.10;100266.56;10470015;27;97659;-81
2023/08/16 18:29:51;;;;;;;2.22;1.30;;;;;;;27.04;48.72;100269.53;10480621;27;98329;-82
2023/08/16 18:34:54;;;;;;;1.90;1.27;;;;;;;26.92;48.66;100263.56;10498779;27;97315;-81
2023/08/16 18:39:57;;;;;;;1.00;0.80;;;;;;;26.79;48.66;100272.13;10484184;27;96686;-81
2023/08/16 18:45:02;;;;;;;1.65;0.85;;;;;;;26.75;49.00;100270.75;10455561;27;97597;-81
2023/08/16 18:50:07;;;;;;;1.98;1.25;;;;;;;26.59;49.31;100283.34;10456429;27;97230;-81
2023/08/16 18:55:10;;;;;;;1.30;1.08;;;;;;;26.45;50.19;100287.50;10455812;27;96591;-81
2023/08/16 19:00:15;;;;;;;1.97;1.20;;;;;;;26.30;50.67;100289.06;10456148;27;96704;-81
2023/08/16 19:05:18;;;;;;;1.88;1.20;;;;;;;26.08;51.40;100297.69;10454708;27;96776;-81
2023/08/16 19:10:23;;;;;;;1.88;0.93;;;;;;;25.91;51.91;100293.19;10455396;27;96685;-81
2023/08/16 19:15:28;;;;;;;1.17;0.98;;;;;;;25.68;53.24;100298.19;10468517;27;97776;-82
2023/08/16 19:20:31;;;;;;;1.50;1.20;;;;;;;25.58;53.83;100301.97;10455126;27;97268;-82
2023/08/16 19:25:34;;;;;;;1.20;0.80;;;;;;;25.40;54.63;100296.56;10455102;27;96742;-82
2023/08/16 19:30:39;;;;;;;1.53;0.73;;;;;;;25.25;55.48;100294.56;10455397;27;96957;-82
2023/08/16 19:35:47;;;;;;;1.40;0.98;;;;;;;25.10;55.54;100302.34;10454297;27;96691;-82
2023/08/16 19:40:52;;;;;;;1.35;0.90;;;;;;;25.16;55.58;100306.25;10455434;27;96867;-81
2023/08/16 19:45:57;;;;;;;2.15;0.90;;;;;;;25.02;56.09;100306.78;10454405;27;96797;-81
2023/08/16 19:51:00;;;;;;;1.15;0.80;;;;;;;24.89;56.46;100311.63;10455180;27;96896;-81
2023/08/16 19:56:03;;;;;;;3.67;1.30;;;;;;;24.68;57.11;100309.19;10454661;27;96620;-81
2023/08/16 20:01:08;;;;;;;1.47;0.90;;;;;;;24.60;57.67;100314.47;10461478;27;97732;-82
2023/08/16 20:06:12;;;;;;;2.03;1.17;;;;;;;24.52;57.32;100325.97;10465120;27;96667;-81
2023/08/16 20:11:15;;;;;;;2.10;0.80;;;;;;;24.39;57.92;100321.91;10495287;27;96814;-82
2023/08/16 20:16:20;;;;;;;1.57;0.90;;;;;;;24.39;57.77;100330.81;10502640;27;96848;-81
2023/08/16 20:21:23;;;;;;;1.05;0.90;;;;;;;24.43;57.97;100329.53;10493437;27;96793;-81
2023/08/16 20:26:27;;;;;;;;;;;;;;;24.37;58.33;100332.81;10486413;27;96723;-82
2023/08/16 20:31:32;;;;;;;2.13;1.15;;;;;;;24.47;57.60;100340.84;10503724;27;96711;-81
2023/08/16 20:36:35;;;;;;;2.10;1.10;;;;;;;24.37;57.71;100348.13;10502418;27;96649;-82
2023/08/16 20:41:40;;;;;;;;;;;;;;;24.35;58.77;100355.47;10465560;27;96736;-81
2023/08/16 20:46:45;;;;;;;1.27;1.05;;;;;;;24.40;57.94;100345.97;10458558;27;96656;-81
2023/08/16 20:51:49;;;;;;;1.42;0.82;;;;;;;24.41;57.85;100353.03;10459490;27;96872;-81
2023/08/16 20:56:52;;;;;;;1.73;1.20;;;;;;;24.26;58.26;100359.00;10460057;27;96665;-81
2023/08/16 21:01:57;;;;;;;2.27;1.17;;;;;;;24.12;58.72;100354.91;10475999;27;96847;-81
2023/08/16 21:07:01;;;;;;;1.45;0.95;;;;;;;24.00;59.02;100361.44;10500761;27;97130;-81
2023/08/16 21:12:05;;;;;;;1.97;1.10;;;;;;;23.93;59.03;100373.75;10500516;27;96575;-81
2023/08/16 21:17:10;;;;;;;1.35;1.02;;;;;;;23.84;59.29;100379.16;10500251;27;96819;-81
2023/08/16 21:22:14;;;;;;;1.63;1.23;;;;;;;23.68;59.45;100374.34;10501522;27;96890;-81
2023/08/16 21:27:17;;;;;;;1.57;1.03;;;;;;;23.51;59.78;100383.06;10500791;27;96862;-81
2023/08/16 21:32:22;;;;;;;1.93;1.03;;;;;;;23.34;60.48;100389.94;10466632;27;96679;-80
2023/08/16 21:37:25;;;;;;;1.38;0.85;;;;;;;23.09;61.10;100385.09;10457201;27;97569;-81
2023/08/16 21:42:29;;;;;;;1.65;1.00;;;;;;;22.89;61.84;100383.31;10457969;27;96776;-81
2023/08/16 21:47:35;;;;;;;1.75;1.08;;;;;;;22.94;61.39;100388.28;10458128;27;96778;-81
2023/08/16 21:52:38;;;;;;;2.25;1.10;;;;;;;22.94;60.84;100383.75;10457657;27;97121;-81
2023/08/16 21:57:41;;;;;;;2.67;1.33;;;;;;;22.90;60.94;100381.47;10457182;27;97417;-81
2023/08/16 22:02:46;;;;;;;1.50;1.15;;;;;;;22.93;60.82;100382.06;10480409;27;97739;-81
2023/08/16 22:07:51;;;;;;;2.05;1.13;;;;;;;22.91;60.72;100372.44;10499467;27;97410;-81
2023/08/16 22:12:54;;;;;;;1.83;1.30;;;;;;;22.94;60.51;100383.75;10500035;27;96615;-81
2023/08/16 22:17:59;;;;;;;2.97;1.33;;;;;;;22.95;60.58;100380.09;10497630;27;96859;-81
2023/08/16 22:23:03;;;;;;;2.10;1.20;;;;;;;23.07;60.05;100373.63;10498148;27;97568;-81
2023/08/16 22:28:06;;;;;;;1.57;1.10;;;;;;;23.10;59.94;100380.56;10497676;27;96990;-82
2023/08/16 22:33:11;;;;;;;1.90;1.10;;;;;;;23.06;59.91;100387.19;10498794;27;97755;-81
2023/08/16 22:38:15;;;;;;;1.80;1.08;;;;;;;23.03;60.00;100384.75;10497518;27;96898;-81
2023/08/16 22:43:19;;;;;;;1.65;1.00;;;;;;;22.66;60.78;100372.88;10498149;27;96834;-81
2023/08/16 22:48:23;;;;;;;1.43;1.03;;;;;;;22.54;60.60;100372.13;10498127;27;96981;-81
2023/08/16 22:53:27;;;;;;;2.28;1.25;;;;;;;22.23;61.39;100375.75;10497198;27;97185;-81
2023/08/16 22:58:30;;;;;;;2.03;1.02;;;;;;;22.14;61.85;100372.00;10498012;27;98022;-81
2023/08/16 23:03:35;;;;;;;2.20;1.05;;;;;;;22.19;61.31;100377.84;10498434;27;96618;-81
2023/08/16 23:08:38;;;;;;;1.60;1.02;;;;;;;22.30;61.02;100367.03;10497852;27;96869;-81
2023/08/16 23:13:42;;;;;;;2.00;1.00;;;;;;;22.17;61.04;100373.56;10496601;27;96642;-81
2023/08/16 23:18:46;;;;;;;1.70;1.00;;;;;;;22.10;60.95;100372.41;10495315;27;97361;-81
2023/08/16 23:23:50;;;;;;;1.77;1.00;;;;;;;21.90;61.74;100371.38;10497201;27;97804;-81